Cat Lake, Canada
Current Conditions -  °F | °C
As of 8:00 PM on Saturday 25 Oct 2014 (Local Time) from CYPL Reporting Station
Overcast Overcast  
Wind Chill: 31°   Ceiling: 2800
Heat Index: 39°   Visibility: 15mi
Dew Point: 28°   Wind: 14mph
Humidity: 65%   Direction: 300°WNW
Pressure: 29.79"   Gusts: 26mph
Location:  51.72°N, 91.8°W
Report Text: CYPL 260100Z 30012G23KT 280V340 15SM OVC028 04/M02 A2979 RMK SC8 SLP103
Loading
Personal Weather Stations






























Interactive Weather Map
Tropical Storm Tracking
New forecast layout! Learn more

10-Day Weather Forecast

Advertisements
Track Severe Weather on mobile